createdAt,value
2023-05-20T00:02:28.463Z,97350.53
2023-05-20T00:04:59.587Z,97355.41
2023-05-20T00:07:30.702Z,97355.06
2023-05-20T00:10:04.157Z,97350.13
2023-05-20T00:12:35.441Z,97350.47
2023-05-20T00:15:06.401Z,97351.00
2023-05-20T00:17:37.561Z,97348.00
2023-05-20T00:20:09.670Z,97336.03
2023-05-20T00:22:40.578Z,97340.09
2023-05-20T00:25:15.140Z,97345.75
2023-05-20T00:27:46.811Z,97345.91
2023-05-20T00:30:18.161Z,97338.25
2023-05-20T00:32:48.975Z,97333.94
2023-05-20T00:35:20.236Z,97343.97
2023-05-20T00:37:51.094Z,97334.97
2023-05-20T00:40:25.652Z,97334.97
2023-05-20T00:42:56.339Z,97320.97
2023-05-20T00:45:27.270Z,97330.81
2023-05-20T00:48:01.909Z,97334.47
2023-05-20T00:50:33.001Z,97336.31
2023-05-20T00:53:03.874Z,97331.31
2023-05-20T00:55:37.955Z,97343.16
2023-05-20T00:58:09.617Z,97342.50
2023-05-20T01:00:41.212Z,97337.19
2023-05-20T01:03:12.478Z,97324.66
2023-05-20T01:05:43.540Z,97325.69
2023-05-20T01:08:14.550Z,97324.03
2023-05-20T01:10:52.753Z,97325.69
2023-05-20T01:13:25.972Z,97318.22
2023-05-20T01:15:59.077Z,97319.88
2023-05-20T01:18:33.922Z,97318.22
2023-05-20T01:21:06.321Z,97322.72
2023-05-20T01:23:42.318Z,97304.78
2023-05-20T01:26:14.116Z,97303.38
2023-05-20T01:28:46.836Z,97301.09
2023-05-20T01:31:23.168Z,97301.25
2023-05-20T01:33:58.882Z,97298.78
2023-05-20T01:36:31.893Z,97301.59
2023-05-20T01:39:07.040Z,97304.44
2023-05-20T01:41:39.844Z,97308.78
2023-05-20T01:44:10.842Z,97297.44
2023-05-20T01:46:41.661Z,97300.13
2023-05-20T01:49:12.458Z,97299.94
2023-05-20T01:51:43.312Z,97294.78
2023-05-20T01:54:16.748Z,97304.44
2023-05-20T01:56:49.270Z,97313.44
2023-05-20T01:59:23.343Z,97304.97
2023-05-20T02:01:55.019Z,97310.13
2023-05-20T02:04:25.979Z,97316.44
2023-05-20T02:06:56.794Z,97310.47
2023-05-20T02:09:30.256Z,97303.47
2023-05-20T02:12:01.244Z,97308.81
2023-05-20T02:14:32.300Z,97299.34
2023-05-20T02:17:03.448Z,97286.81
2023-05-20T02:19:34.482Z,97298.00
2023-05-20T02:22:05.239Z,97299.19
2023-05-20T02:24:38.684Z,97306.69
2023-05-20T02:27:09.765Z,97299.88
2023-05-20T02:29:41.684Z,97310.03
2023-05-20T02:32:14.469Z,97307.88
2023-05-20T02:34:45.213Z,97308.22
2023-05-20T02:37:15.961Z,97312.25
2023-05-20T02:39:49.536Z,97303.56
2023-05-20T02:42:20.472Z,97309.91
2023-05-20T02:44:51.561Z,97305.91
2023-05-20T02:47:22.484Z,97307.94
2023-05-20T02:49:53.274Z,97301.13
2023-05-20T02:52:25.248Z,97308.44
2023-05-20T02:54:58.766Z,97307.09
2023-05-20T02:57:30.576Z,97293.31
2023-05-20T03:00:01.457Z,97297.16
2023-05-20T03:02:36.230Z,97298.31
2023-05-20T03:05:07.309Z,97302.97
2023-05-20T03:07:39.658Z,97309.47
2023-05-20T03:10:13.954Z,97303.50
2023-05-20T03:12:44.833Z,97308.13
2023-05-20T03:15:15.792Z,97302.00
2023-05-20T03:17:46.555Z,97304.16
2023-05-20T03:20:18.071Z,97308.66
2023-05-20T03:22:48.915Z,97303.34
2023-05-20T03:25:22.470Z,97300.69
2023-05-20T03:27:53.292Z,97300.69
2023-05-20T03:30:24.680Z,97297.84
2023-05-20T03:32:58.097Z,97305.66
2023-05-20T03:35:29.361Z,97300.16
2023-05-20T03:38:02.070Z,97300.16
2023-05-20T03:40:36.670Z,97312.28
2023-05-20T03:43:08.291Z,97322.59
2023-05-20T03:45:39.182Z,97325.75
2023-05-20T03:48:11.612Z,97324.41
2023-05-20T03:50:43.663Z,97331.91
2023-05-20T03:53:15.257Z,97332.22
2023-05-20T03:55:48.867Z,97327.38
2023-05-20T03:58:21.148Z,97333.38
2023-05-20T04:00:52.151Z,97335.53
2023-05-20T04:03:23.310Z,97340.50
2023-05-20T04:05:54.326Z,97337.34
2023-05-20T04:08:26.276Z,97336.66
2023-05-20T04:11:02.042Z,97332.81
2023-05-20T04:13:33.078Z,97328.78
2023-05-20T04:16:05.645Z,97330.72
2023-05-20T04:18:39.582Z,97334.97
2023-05-20T04:21:11.620Z,97332.56
2023-05-20T04:23:42.520Z,97334.81
2023-05-20T04:26:16.108Z,97335.59
2023-05-20T04:28:49.112Z,97332.03
2023-05-20T04:31:21.345Z,97331.53
2023-05-20T04:33:52.362Z,97322.16
2023-05-20T04:36:23.402Z,97326.94
2023-05-20T04:38:54.306Z,97318.22
2023-05-20T04:41:28.016Z,97336.41
2023-05-20T04:44:00.168Z,97319.88
2023-05-20T04:46:31.965Z,97335.16
2023-05-20T04:49:04.811Z,97331.75
2023-05-20T04:51:35.747Z,97325.16
2023-05-20T04:54:06.585Z,97322.00
2023-05-20T04:56:40.786Z,97329.56
2023-05-20T04:59:11.636Z,97327.53
2023-05-20T05:01:44.126Z,97330.88
2023-05-20T05:04:15.082Z,97326.81
2023-05-20T05:06:46.043Z,97332.97
2023-05-20T05:09:16.878Z,97329.56
2023-05-20T05:11:51.248Z,97328.16
2023-05-20T05:14:22.650Z,97322.13
2023-05-20T05:16:55.582Z,97335.25
2023-05-20T05:19:26.944Z,97328.91
2023-05-20T05:21:57.881Z,97327.22
2023-05-20T05:24:29.303Z,97340.38
2023-05-20T05:27:03.023Z,97334.03
2023-05-20T05:29:33.870Z,97324.78
2023-05-20T05:32:04.753Z,97324.56
2023-05-20T05:34:35.548Z,97318.66
2023-05-20T05:37:07.602Z,97322.28
2023-05-20T05:39:38.792Z,97325.47
2023-05-20T05:42:12.519Z,97318.34
2023-05-20T05:44:43.673Z,97314.53
2023-05-20T05:47:15.361Z,97314.72
2023-05-20T05:49:46.913Z,97311.09
2023-05-20T05:52:17.909Z,97298.44
2023-05-20T05:54:48.697Z,97298.84
2023-05-20T05:57:22.295Z,97297.63
2023-05-20T05:59:53.162Z,97300.03
2023-05-20T06:02:26.448Z,97298.06
2023-05-20T06:04:58.430Z,97311.00
2023-05-20T06:07:29.313Z,97297.28
2023-05-20T06:10:01.446Z,97292.69
2023-05-20T06:12:36.884Z,97302.19
2023-05-20T06:15:08.903Z,97298.22
2023-05-20T06:17:40.196Z,97302.16
2023-05-20T06:20:12.929Z,97302.50
2023-05-20T06:22:43.765Z,97308.44
2023-05-20T06:25:15.935Z,97311.34
2023-05-20T06:27:49.728Z,97314.00
2023-05-20T06:30:23.629Z,97309.78
2023-05-20T06:32:54.626Z,97314.47
2023-05-20T06:35:25.581Z,97321.97
2023-05-20T06:37:56.518Z,97318.25
2023-05-20T06:40:27.584Z,97309.00
2023-05-20T06:43:01.506Z,97307.59
2023-05-20T06:46:12.169Z,97311.13
2023-05-20T06:48:49.383Z,97317.22
2023-05-20T06:51:21.133Z,97323.03
2023-05-20T06:53:53.943Z,97315.94
2023-05-20T06:56:24.952Z,97327.06
2023-05-20T06:58:58.703Z,97323.13
2023-05-20T07:01:30.346Z,97308.06
2023-05-20T07:04:01.544Z,97302.50
2023-05-20T07:06:33.611Z,97304.47
2023-05-20T07:09:05.805Z,97297.22
2023-05-20T07:11:37.563Z,97305.50
2023-05-20T07:14:11.852Z,97312.38
2023-05-20T07:16:42.710Z,97316.59
2023-05-20T07:19:13.980Z,97310.34
2023-05-20T07:21:44.884Z,97311.22
2023-05-20T07:24:21.456Z,97314.47
2023-05-20T07:26:52.165Z,97313.13
2023-05-20T07:29:25.742Z,97325.91
2023-05-20T07:31:56.888Z,97317.69
2023-05-20T07:34:28.174Z,97324.72
2023-05-20T07:36:59.264Z,97329.78
2023-05-20T07:39:30.148Z,97328.81
2023-05-20T07:42:01.272Z,97338.94
2023-05-20T07:44:35.093Z,97328.31
2023-05-20T07:47:06.513Z,97316.25
2023-05-20T07:49:38.192Z,97323.91
2023-05-20T07:52:10.074Z,97325.78
2023-05-20T07:54:40.992Z,97325.94
2023-05-20T07:57:12.026Z,97319.09
2023-05-20T07:59:45.628Z,97314.13
2023-05-20T08:02:18.052Z,97314.38
2023-05-20T08:04:49.241Z,97313.84
2023-05-20T08:07:19.974Z,97318.25
2023-05-20T08:09:56.606Z,97308.72
2023-05-20T08:12:27.530Z,97311.53
2023-05-20T08:15:01.007Z,97300.66
2023-05-20T08:17:32.060Z,97302.19
2023-05-20T08:20:03.469Z,97305.75
2023-05-20T08:22:35.304Z,97316.00
2023-05-20T08:25:06.272Z,97311.44
2023-05-20T08:27:37.524Z,97304.97
2023-05-20T08:30:14.044Z,97304.97
2023-05-20T08:32:45.656Z,97302.50
2023-05-20T08:35:16.565Z,97305.94
2023-05-20T08:37:47.377Z,97314.50
2023-05-20T08:40:18.961Z,97311.66
2023-05-20T08:42:53.190Z,97310.38
2023-05-20T08:45:28.983Z,97301.69
2023-05-20T08:48:06.372Z,97295.78
2023-05-20T08:50:37.359Z,97302.97
2023-05-20T08:53:08.224Z,97310.22
2023-05-20T08:55:45.654Z,97305.28
2023-05-20T08:58:18.105Z,97306.16
2023-05-20T09:00:51.652Z,97306.06
2023-05-20T09:03:24.334Z,97308.59
2023-05-20T09:05:56.568Z,97304.41
2023-05-20T09:08:29.429Z,97305.63
2023-05-20T09:11:00.350Z,97299.06
2023-05-20T09:13:33.039Z,97294.34
2023-05-20T09:16:06.703Z,97302.72
2023-05-20T09:18:37.517Z,97313.00
2023-05-20T09:21:10.089Z,97311.84
2023-05-20T09:23:41.313Z,97313.38
2023-05-20T09:26:12.659Z,97314.09
2023-05-20T09:28:43.623Z,97306.72
2023-05-20T09:31:18.326Z,97306.38
2023-05-20T09:33:49.191Z,97317.09
2023-05-20T09:36:20.067Z,97311.59
2023-05-20T09:38:53.781Z,97300.88
2023-05-20T09:41:27.912Z,97298.91
2023-05-20T09:43:59.107Z,97290.41
2023-05-20T09:46:33.124Z,97287.38
2023-05-20T09:49:07.124Z,97275.13
2023-05-20T09:51:38.836Z,97275.38
2023-05-20T09:54:10.324Z,97272.09
2023-05-20T09:56:43.866Z,97267.75
2023-05-20T09:59:16.994Z,97273.41
2023-05-20T10:01:50.749Z,97275.03
2023-05-20T10:04:23.722Z,97273.97
2023-05-20T10:07:14.580Z,97265.84
2023-05-20T10:10:03.626Z,97264.22
2023-05-20T10:12:42.867Z,97262.56
2023-05-20T10:15:20.786Z,97264.44
2023-05-20T10:18:01.999Z,97266.81
2023-05-20T10:20:33.184Z,97259.78
2023-05-20T10:23:05.140Z,97253.53
2023-05-20T10:25:36.385Z,97250.81
2023-05-20T10:28:12.505Z,97253.06
2023-05-20T10:30:53.474Z,97247.97
2023-05-20T10:33:30.181Z,97251.25
2023-05-20T10:36:02.933Z,97245.34
2023-05-20T10:38:33.847Z,97243.25
2023-05-20T10:41:12.384Z,97236.75
2023-05-20T10:43:44.671Z,97240.53
2023-05-20T10:46:32.661Z,97241.56
2023-05-20T10:49:26.173Z,97232.88
2023-05-20T10:51:58.382Z,97225.31
2023-05-20T10:54:29.789Z,97221.22
2023-05-20T10:57:00.510Z,97216.97
2023-05-20T10:59:31.576Z,97218.72
2023-05-20T11:02:06.307Z,97215.88
2023-05-20T11:04:39.860Z,97219.25
2023-05-20T11:07:10.678Z,97209.34
2023-05-20T11:09:41.699Z,97220.03
2023-05-20T11:12:12.569Z,97207.63
2023-05-20T11:14:43.500Z,97208.56
2023-05-20T11:17:14.464Z,97201.31
2023-05-20T11:19:47.876Z,97205.75
2023-05-20T11:22:19.123Z,97198.19
2023-05-20T11:24:50.056Z,97199.81
2023-05-20T11:27:21.826Z,97208.47
2023-05-20T11:29:54.002Z,97212.50
2023-05-20T11:32:24.968Z,97204.53
2023-05-20T11:34:58.423Z,97203.13
2023-05-20T11:37:29.252Z,97198.91
2023-05-20T11:40:11.103Z,97205.88
2023-05-20T11:42:41.979Z,97197.19
2023-05-20T11:45:17.402Z,97186.13
2023-05-20T11:47:48.460Z,97184.31
2023-05-20T11:50:23.874Z,97176.84
2023-05-20T11:53:00.819Z,97180.78
2023-05-20T11:55:32.467Z,97176.03
2023-05-20T11:58:04.089Z,97184.81
2023-05-20T12:00:46.770Z,97182.44
2023-05-20T12:03:22.575Z,97178.16
2023-05-20T12:05:56.401Z,97174.94
2023-05-20T12:08:27.338Z,97168.47
2023-05-20T12:10:58.184Z,97162.22
2023-05-20T12:13:29.183Z,97153.25
2023-05-20T12:16:00.236Z,97153.53
2023-05-20T12:18:31.257Z,97143.47
2023-05-20T12:21:05.889Z,97152.94
2023-05-20T12:23:37.021Z,97150.22
2023-05-20T12:26:07.991Z,97141.78
2023-05-20T12:28:38.884Z,97145.81
2023-05-20T12:31:09.873Z,97138.75
2023-05-20T12:33:40.975Z,97144.16
2023-05-20T12:36:14.434Z,97131.41
2023-05-20T12:38:45.647Z,97130.09
2023-05-20T12:41:16.429Z,97132.25
2023-05-20T12:43:47.349Z,97127.06
2023-05-20T12:46:18.361Z,97119.50
2023-05-20T12:48:49.392Z,97115.47
2023-05-20T12:51:22.926Z,97105.47
2023-05-20T12:53:53.879Z,97101.91
2023-05-20T12:56:26.721Z,97090.50
2023-05-20T12:58:58.466Z,97091.59
2023-05-20T13:01:29.696Z,97091.53
2023-05-20T13:04:00.596Z,97083.88
2023-05-20T13:06:34.456Z,97078.94
2023-05-20T13:09:05.442Z,97092.75
2023-05-20T13:11:36.194Z,97091.94
2023-05-20T13:14:07.096Z,97084.06
2023-05-20T13:16:37.992Z,97083.22
2023-05-20T13:19:09.109Z,97076.75
2023-05-20T13:21:42.506Z,97075.16
2023-05-20T13:24:13.738Z,97078.47
2023-05-20T13:26:44.579Z,97070.88
2023-05-20T13:29:16.647Z,97073.34
2023-05-20T13:31:47.476Z,97066.06
2023-05-20T13:34:18.424Z,97048.72
2023-05-20T13:36:52.733Z,97057.50
2023-05-20T13:39:23.571Z,97063.47
2023-05-20T13:41:55.487Z,97048.84
2023-05-20T13:44:26.473Z,97047.22
2023-05-20T13:46:57.396Z,97050.41
2023-05-20T13:49:28.790Z,97052.31
2023-05-20T13:52:02.152Z,97057.75
2023-05-20T13:54:32.904Z,97046.66
2023-05-20T13:57:08.245Z,97035.22
2023-05-20T13:59:39.142Z,97037.88
2023-05-20T14:02:11.347Z,97035.16
2023-05-20T14:04:45.277Z,97028.13
2023-05-20T14:07:18.742Z,97036.25
2023-05-20T14:09:49.491Z,97025.59
2023-05-20T14:12:20.336Z,97018.78
2023-05-20T14:14:51.163Z,97024.44
2023-05-20T14:17:22.119Z,97015.25
2023-05-20T14:19:52.947Z,97020.16
2023-05-20T14:22:26.456Z,97025.09
2023-05-20T14:24:57.380Z,97023.50
2023-05-20T14:27:28.271Z,97013.00
2023-05-20T14:29:59.052Z,97016.00
2023-05-20T14:32:30.014Z,97017.16
2023-05-20T14:35:00.889Z,97017.44
2023-05-20T14:37:34.475Z,97047.84
2023-05-20T14:40:05.437Z,97085.47
2023-05-20T14:42:36.731Z,97117.06
2023-05-20T14:45:08.154Z,97148.88
2023-05-20T14:47:40.525Z,97164.66
2023-05-20T14:50:11.952Z,97139.47
2023-05-20T14:52:46.266Z,97137.63
2023-05-20T14:55:17.250Z,97112.81
2023-05-20T14:57:48.242Z,97125.00
2023-05-20T15:00:19.578Z,97124.16
2023-05-20T15:02:50.573Z,97118.09
2023-05-20T15:05:21.510Z,97106.09
2023-05-20T15:07:55.030Z,97103.13
2023-05-20T15:10:26.190Z,97086.47
2023-05-20T15:12:57.076Z,97078.91
2023-05-20T15:15:27.959Z,97071.31
2023-05-20T15:17:59.064Z,97078.38
2023-05-20T15:20:30.268Z,97071.78
2023-05-20T15:23:04.347Z,97074.09
2023-05-20T15:25:37.335Z,97069.78
2023-05-20T15:28:08.588Z,97055.69
2023-05-20T15:30:39.351Z,97038.97
2023-05-20T15:33:10.515Z,97039.41
2023-05-20T15:35:41.393Z,97040.88
2023-05-20T15:38:14.825Z,97035.13
2023-05-20T15:40:45.587Z,97035.53
2023-05-20T15:43:16.415Z,97037.44
2023-05-20T15:45:48.606Z,97040.91
2023-05-20T15:48:19.604Z,97030.63
2023-05-20T15:50:50.402Z,97026.06
2023-05-20T15:53:23.876Z,97024.03
2023-05-20T15:55:55.130Z,97023.63
2023-05-20T15:58:25.945Z,97025.72
2023-05-20T16:00:56.868Z,97038.13
2023-05-20T16:03:27.793Z,97038.13
2023-05-20T16:05:58.816Z,97036.03
2023-05-20T16:08:34.463Z,97031.47
2023-05-20T16:11:05.292Z,97046.34
2023-05-20T16:13:36.221Z,97058.16
2023-05-20T16:16:07.570Z,97051.56
2023-05-20T16:18:38.516Z,97042.66
2023-05-20T16:21:09.737Z,97035.63
2023-05-20T16:23:43.199Z,97036.47
2023-05-20T16:26:14.817Z,97033.56
2023-05-20T16:28:45.813Z,97025.28
2023-05-20T16:31:16.794Z,97032.31
2023-05-20T16:33:47.709Z,97034.38
2023-05-20T16:36:18.527Z,97027.34
2023-05-20T16:38:52.121Z,97024.66
2023-05-20T16:41:23.218Z,97023.25
2023-05-20T16:43:54.151Z,97017.47
2023-05-20T16:46:25.057Z,97019.56
2023-05-20T16:48:57.333Z,97023.91
2023-05-20T16:51:28.359Z,97018.78
2023-05-20T16:54:02.025Z,97017.56
2023-05-20T16:56:33.735Z,97013.66
2023-05-20T16:59:04.871Z,97004.38
2023-05-20T17:01:37.232Z,96999.44
2023-05-20T17:04:09.029Z,97008.97
2023-05-20T17:06:40.189Z,97008.38
2023-05-20T17:09:15.460Z,97006.09
2023-05-20T17:11:46.167Z,97008.63
2023-05-20T17:14:16.932Z,97009.25
2023-05-20T17:16:47.751Z,97002.63
2023-05-20T17:19:18.839Z,97014.03
2023-05-20T17:21:49.599Z,97002.47
2023-05-20T17:24:23.073Z,96999.59
2023-05-20T17:26:54.057Z,96999.22
2023-05-20T17:29:24.933Z,97011.41
2023-05-20T17:31:55.940Z,97017.19
2023-05-20T17:34:26.846Z,97010.59
2023-05-20T17:36:58.043Z,97018.28
2023-05-20T17:39:31.562Z,97029.84
2023-05-20T17:42:03.334Z,97028.63
2023-05-20T17:44:34.250Z,97024.72
2023-05-20T17:47:05.151Z,97034.44
2023-05-20T17:49:36.140Z,97025.34
2023-05-20T17:52:07.069Z,97029.47
2023-05-20T17:54:42.327Z,97046.44
2023-05-20T17:57:13.219Z,97034.88
2023-05-20T17:59:45.686Z,97041.69
2023-05-20T18:02:16.458Z,97051.41
2023-05-20T18:04:47.324Z,97043.13
2023-05-20T18:07:18.338Z,97045.59
2023-05-20T18:09:51.856Z,97055.09
2023-05-20T18:12:22.681Z,97072.44
2023-05-20T18:14:53.532Z,97065.81
2023-05-20T18:17:24.444Z,97054.69
2023-05-20T18:19:55.397Z,97059.66
2023-05-20T18:22:26.425Z,97072.41
2023-05-20T18:24:59.950Z,97063.13
2023-05-20T18:27:32.171Z,97055.50
2023-05-20T18:30:03.097Z,97063.53
2023-05-20T18:32:37.128Z,97047.81
2023-05-20T18:35:08.833Z,97074.03
2023-05-20T18:37:39.624Z,97071.94
2023-05-20T18:40:14.362Z,97070.69
2023-05-20T18:42:45.284Z,97086.97
2023-05-20T18:45:16.498Z,97089.03
2023-05-20T18:47:47.332Z,97087.38
2023-05-20T18:50:18.171Z,97088.38
2023-05-20T18:52:49.111Z,97088.63
2023-05-20T18:55:22.757Z,97086.34
2023-05-20T18:57:53.592Z,97086.72
2023-05-20T19:00:24.740Z,97083.22
2023-05-20T19:02:58.390Z,97080.72
2023-05-20T19:05:29.228Z,97082.16
2023-05-20T19:08:00.698Z,97082.53
2023-05-20T19:10:34.177Z,97081.28
2023-05-20T19:13:04.980Z,97079.66
2023-05-20T19:15:38.034Z,97088.06
2023-05-20T19:18:09.140Z,97093.63
2023-05-20T19:20:42.933Z,97090.34
2023-05-20T19:23:13.865Z,97094.25
2023-05-20T19:25:47.373Z,97090.72
2023-05-20T19:28:18.408Z,97085.56
2023-05-20T19:30:49.289Z,97092.78
2023-05-20T19:33:20.126Z,97095.66
2023-05-20T19:35:51.351Z,97082.47
2023-05-20T19:38:22.247Z,97072.16
2023-05-20T19:40:55.672Z,97071.34
2023-05-20T19:43:26.490Z,97068.44
2023-05-20T19:45:57.320Z,97074.19
2023-05-20T19:48:28.150Z,97073.75
2023-05-20T19:50:59.014Z,97069.63
2023-05-20T19:53:29.870Z,97063.81
2023-05-20T19:56:03.438Z,97066.69
2023-05-20T19:58:34.257Z,97067.50
2023-05-20T20:01:07.054Z,97069.94
2023-05-20T20:03:37.880Z,97076.91
2023-05-20T20:06:08.844Z,97067.41
2023-05-20T20:08:40.210Z,97071.13
2023-05-20T20:11:13.752Z,97064.13
2023-05-20T20:13:44.705Z,97065.13
2023-05-20T20:16:15.807Z,97059.16
2023-05-20T20:18:46.987Z,97059.53
2023-05-20T20:21:18.424Z,97060.97
2023-05-20T20:23:49.102Z,97064.03
2023-05-20T20:26:23.057Z,97064.78
2023-05-20T20:28:54.097Z,97065.16
2023-05-20T20:31:25.095Z,97060.22
2023-05-20T20:33:55.892Z,97059.75
2023-05-20T20:36:32.122Z,97056.47
2023-05-20T20:39:05.453Z,97059.34
2023-05-20T20:41:39.013Z,97064.69
2023-05-20T20:44:10.936Z,97059.34
2023-05-20T20:46:41.802Z,97056.03
2023-05-20T20:49:12.804Z,97062.38
2023-05-20T20:51:43.867Z,97051.91
2023-05-20T20:54:14.836Z,97049.44
2023-05-20T20:56:48.737Z,97051.25
2023-05-20T20:59:22.357Z,97053.94
2023-05-20T21:01:53.127Z,97059.47
2023-05-20T21:04:25.261Z,97053.50
2023-05-20T21:06:56.148Z,97056.38
2023-05-20T21:09:26.876Z,97053.28
2023-05-20T21:12:00.746Z,97053.84
2023-05-20T21:14:31.630Z,97056.69
2023-05-20T21:17:02.539Z,97056.09
2023-05-20T21:19:33.410Z,97050.09
2023-05-20T21:22:04.275Z,97048.44
2023-05-20T21:24:35.097Z,97045.16
2023-05-20T21:27:09.029Z,97050.69
2023-05-20T21:29:40.376Z,97036.03
2023-05-20T21:32:11.914Z,97043.41
2023-05-20T21:34:42.730Z,97033.94
2023-05-20T21:37:15.020Z,97030.66
2023-05-20T21:39:45.927Z,97032.66
2023-05-20T21:42:19.421Z,97027.72
2023-05-20T21:44:50.220Z,97031.44
2023-05-20T21:47:21.312Z,97032.59
2023-05-20T21:49:52.097Z,97027.84
2023-05-20T21:52:22.983Z,97018.56
2023-05-20T21:54:53.752Z,97023.47
2023-05-20T21:57:27.317Z,97019.53
2023-05-20T21:59:58.104Z,97015.41
2023-05-20T22:02:29.012Z,97020.09
2023-05-20T22:05:00.765Z,97019.47
2023-05-20T22:07:33.393Z,97013.47
2023-05-20T22:10:04.669Z,97021.50
2023-05-20T22:12:38.361Z,97012.84
2023-05-20T22:15:10.466Z,97004.84
2023-05-20T22:17:41.444Z,97010.19
2023-05-20T22:20:14.070Z,97009.34
2023-05-20T22:22:44.883Z,97001.16
2023-05-20T22:25:15.882Z,97001.16
2023-05-20T22:27:49.490Z,97002.00
2023-05-20T22:30:20.535Z,97006.50
2023-05-20T22:32:52.013Z,97008.13
2023-05-20T22:35:24.003Z,96998.84
2023-05-20T22:37:55.226Z,96999.94
2023-05-20T22:40:26.194Z,96991.31
2023-05-20T22:42:59.802Z,96985.13
2023-05-20T22:45:30.704Z,96986.16
2023-05-20T22:48:02.182Z,96979.97
2023-05-20T22:50:35.740Z,96982.03
2023-05-20T22:53:06.871Z,96981.19
2023-05-20T22:55:39.069Z,96982.22
2023-05-20T22:58:12.638Z,96991.44
2023-05-20T23:00:44.762Z,96968.38
2023-05-20T23:03:15.708Z,96972.31
2023-05-20T23:05:46.622Z,96975.16
2023-05-20T23:08:17.512Z,96967.34
2023-05-20T23:10:48.249Z,96966.69
2023-05-20T23:13:21.668Z,96976.75
2023-05-20T23:15:52.559Z,96972.63
2023-05-20T23:18:23.485Z,96971.78
2023-05-20T23:20:54.315Z,96972.81
2023-05-20T23:23:30.987Z,96966.44
2023-05-20T23:26:02.716Z,96967.47
2023-05-20T23:28:36.158Z,96959.44
2023-05-20T23:31:07.090Z,96953.28
2023-05-20T23:33:38.229Z,96957.81
2023-05-20T23:36:10.024Z,96959.44
2023-05-20T23:38:40.989Z,96959.44
2023-05-20T23:41:11.801Z,96956.78
2023-05-20T23:43:45.282Z,96955.13
2023-05-20T23:46:16.148Z,96949.78
2023-05-20T23:48:48.590Z,96947.13
2023-05-20T23:51:19.522Z,96941.78
2023-05-20T23:53:50.519Z,96940.75
2023-05-20T23:56:21.604Z,96936.25
2023-05-20T23:58:55.140Z,96937.06
